Fort Dodge, Iowa
Current Conditions -  °F | °C
As of 11:35 PM on Saturday 22 Nov 2014 (Local Time) from KFOD Reporting Station
Overcast Overcast  
Wind Chill: 52°   Ceiling: 1300
Heat Index: 52°   Visibility: 10mi
Dew Point: 50°   Wind: 20mph
Humidity: 94%   Direction: 190°S
Pressure: 29.58"   Gusts: 26mph
Location:  42.5°N, 94.18°W
Report Text: KFOD 230535Z AUTO 19017G23KT 10SM SCT008 OVC013 11/10 A2958 RMK AO1
Loading
Personal Weather Stations






























Interactive Weather Map New forecast layout! Learn more

10-Day Weather Forecast

Advertisements
Track Severe Weather on mobile